Alisal, California
Current Conditions -  °F | °C
As of 10:53 PM on Friday 28 Nov 2014 (Local Time) from KSNS Reporting Station
Overcast Overcast  
Wind Chill: 13°   Ceiling: 1400
Heat Index: 13°   Visibility: 10mi
Dew Point:   Wind: 3mph
Humidity: 75%   Direction: 110°ESE
Pressure: 29.91"   Gusts: NA
Location:  36.6786°N, 121.613°W
Report Text: KSNS 290653Z 11003KT 10SM OVC014 13/09 A2991 RMK AO2 SLP138 T01330089
Loading
Personal Weather Stations






























Interactive Weather Map New forecast layout! Learn more

10-Day Weather Forecast

Advertisements
Track Severe Weather on mobile